LICD

Details ICAO LICD (LMP)
Name Lampedusa Airport
Region Italy
Timezone Europe/Rome (UTC+2.0)
Plans Departing 63
Arriving 117
Stats Elevation 65 ft / 20 m (AMSL)
Location 35.498100° 12.618300°
Runways 1
Magnetic Variation 2.793° E
Sunrise 2018-10-15 05:16:43 UTC / 2018-10-15 07:16:43 Local
Sunset 2018-10-15 16:36:15 UTC / 2018-10-15 18:36:15 Local
Advertisement - Login to hide

Runways

ID Width Length Bearing (true/mag) Surface Threshold Overrun Markings Lighting
08 148 ft / 45 m 5,890 ft / 1,795 m 80.57° / 77.78° ASPHALT 0 ft / 0 m 0 ft / 0 m PREC-APP CENTERLINE EDGE THRESHOLD SALS REIL-OMNI
26 148 ft / 45 m 5,890 ft / 1,795 m 260.58° / 257.79° ASPHALT 0 ft / 0 m 0 ft / 0 m PREC-APP CENTERLINE EDGE THRESHOLD REIL-OMNI

Approach Navaids

Runway Type Ident Frequency Range Bearing (true/mag) Slope Elevation
26 DME ILMA 111.30 MHz 25 nm / 46 km - - 70 ft / 21 m (AMSL)
26 LOC-ILS ILMA 111.30 MHz 20 nm / 37 km 260.60° / 257.81° - 70 ft / 21 m (AMSL)

Map

Weather


0- 5 10 15 20 25 30 35+ Temperature / °C

Clouds and Precipitation
Forecast for 2018-10-15 18:00 UTC. Updated 5 hours ago

Ground ~20,000 ft ~40,000 ft Winds

METAR

LICD 151850Z 19009KT 9999 SCT025 24/20 Q1015

TAF

TAF LICD 151700Z 1518/1618 16014KT 9999 SCT030

Frequencies

Unicom 122.10 MHz Lampedusa Aerodrome Unicom
Tower 123.50 MHz Lampedusa Tower
Warning: Do not use this data for real-world aviation or navigation. No guarantee of current accuracy is given.